Time;durP1;ratioP1;P1;durP2;ratioP2;P2;SDS_P1;SDS_P2;PMS_P1;PMS_P2;Temp;Humidity;BMP_temperature;BMP_pressure;BME280_temperature;BME280_humidity;BME280_pressure;Samples;Min_cycle;Max_cycle;Signal;HPM_P1;HPM_P2
2022/04/15 00:01:54;;;;;;;26.60;15.90;;;;;;;3.23;66.89;97796.19;110059;1247;58122;-75
2022/04/15 00:04:26;;;;;;;18.50;13.90;;;;;;;3.24;67.45;97792.52;110036;1247;58138;-74
2022/04/15 00:06:57;;;;;;;20.90;13.60;;;;;;;3.26;67.13;97792.11;109945;1248;69358;-71
2022/04/15 00:09:30;;;;;;;20.70;15.00;;;;;;;3.29;66.33;97792.02;110155;1246;67563;-73
2022/04/15 00:12:06;;;;;;;16.40;12.30;;;;;;;3.30;68.07;97789.20;110002;1247;68500;-72
2022/04/15 00:14:37;;;;;;;16.40;10.60;;;;;;;3.28;67.51;97790.31;110117;1247;58100;-72
2022/04/15 00:17:07;;;;;;;;;;;;;;;3.25;68.31;97790.79;110135;1247;58147;-72
2022/04/15 00:19:38;;;;;;;14.90;11.60;;;;;;;3.15;67.56;97787.86;110056;1247;70665;-72
2022/04/15 00:22:08;;;;;;;;;;;;;;;3.08;68.86;97788.99;109902;1247;69455;-74
2022/04/15 00:24:39;;;;;;;18.50;13.00;;;;;;;3.01;70.38;97795.42;110103;1246;69381;-73
2022/04/15 00:27:08;;;;;;;;;;;;;;;2.97;70.12;97794.02;110063;1246;58144;-73
2022/04/15 00:29:39;;;;;;;24.10;15.10;;;;;;;2.93;70.94;97796.27;110089;1246;58061;-72
2022/04/15 00:32:10;;;;;;;16.80;11.60;;;;;;;2.88;71.07;97795.07;110106;1247;69132;-73
2022/04/15 00:34:41;;;;;;;22.30;15.60;;;;;;;2.82;70.25;97797.16;110104;1247;68626;-73
2022/04/15 00:37:11;;;;;;;18.90;12.80;;;;;;;2.78;71.35;97799.71;110085;1247;68441;-72
2022/04/15 00:39:45;;;;;;;21.40;15.20;;;;;;;2.73;69.37;97799.39;109845;1248;58083;-71
2022/04/15 00:42:15;;;;;;;27.70;18.10;;;;;;;2.69;69.46;97800.91;110053;1247;58116;-73
2022/04/15 00:44:48;;;;;;;21.80;14.70;;;;;;;2.59;70.26;97801.59;110029;1247;69922;-70
2022/04/15 00:47:22;;;;;;;20.50;14.30;;;;;;;2.49;72.07;97798.64;109893;1247;67788;-73
2022/04/15 00:49:52;;;;;;;18.70;14.00;;;;;;;2.42;71.91;97801.47;110092;1247;68574;-71
2022/04/15 00:52:26;;;;;;;20.50;15.20;;;;;;;2.36;73.37;97801.33;110186;1245;58145;-71
2022/04/15 00:54:58;;;;;;;22.30;14.50;;;;;;;2.30;73.26;97797.94;110349;1245;58154;-72
2022/04/15 00:57:30;;;;;;;22.00;14.60;;;;;;;2.24;73.33;97795.05;110156;1247;69752;-74
2022/04/15 01:00:06;;;;;;;18.00;13.20;;;;;;;2.18;72.37;97796.28;110082;1247;68332;-72
2022/04/15 01:02:37;;;;;;;22.10;13.70;;;;;;;2.12;71.64;97793.72;110088;1247;68630;-72
2022/04/15 01:05:10;;;;;;;23.00;17.00;;;;;;;2.06;72.04;97788.40;109875;1247;58932;-71
2022/04/15 01:07:42;;;;;;;17.40;13.60;;;;;;;1.99;71.85;97788.82;110261;1247;58927;-73
2022/04/15 01:10:16;;;;;;;19.10;13.70;;;;;;;1.92;74.08;97792.28;110002;1247;70857;-72
2022/04/15 01:12:53;;;;;;;16.80;12.00;;;;;;;1.87;74.90;97792.63;110301;1245;69193;-73
2022/04/15 01:15:45;;;;;;;15.40;12.30;;;;;;;1.82;74.22;97794.85;110301;1247;68629;-72
2022/04/15 01:18:15;;;;;;;18.30;12.70;;;;;;;1.77;75.43;97797.06;110216;1245;58954;-72
2022/04/15 01:20:50;;;;;;;19.00;14.00;;;;;;;1.72;75.63;97794.65;110115;1247;58867;-73
2022/04/15 01:23:21;;;;;;;19.70;14.00;;;;;;;1.65;74.97;97796.59;110133;1247;70655;-74
2022/04/15 01:25:50;;;;;;;16.60;12.80;;;;;;;1.58;73.05;97792.52;109904;1247;69439;-73
2022/04/15 01:28:20;;;;;;;15.60;11.60;;;;;;;1.53;73.03;97784.41;109832;1247;69408;-72
2022/04/15 01:30:51;;;;;;;19.60;14.00;;;;;;;1.50;72.89;97783.11;110226;1246;58867;-71
2022/04/15 01:33:21;;;;;;;22.30;14.20;;;;;;;1.51;75.09;97779.82;110097;1248;58898;-71
2022/04/15 01:35:56;;;;;;;19.70;14.50;;;;;;;1.51;73.42;97778.95;110167;1247;70770;-73
2022/04/15 01:38:26;;;;;;;22.70;15.20;;;;;;;1.52;72.24;97773.97;109982;1247;69390;-73
2022/04/15 01:40:56;;;;;;;;;;;;;;;1.57;72.08;97773.83;110140;1247;70133;-71
2022/04/15 01:43:26;;;;;;;13.50;10.80;;;;;;;1.62;74.74;97772.81;110222;1245;58812;-71
2022/04/15 01:45:56;;;;;;;20.40;13.10;;;;;;;1.66;75.95;97774.41;110005;1247;58920;-72
2022/04/15 01:48:27;;;;;;;19.90;12.90;;;;;;;1.67;75.43;97768.34;110064;1247;69813;-71
2022/04/15 01:50:57;;;;;;;22.00;15.60;;;;;;;1.66;71.60;97767.69;109892;1248;68657;-73
2022/04/15 01:53:28;;;;;;;20.50;14.70;;;;;;;1.63;71.22;97767.30;110144;1247;69305;-70
2022/04/15 01:55:58;;;;;;;19.30;13.40;;;;;;;1.56;71.92;97767.14;110112;1247;58941;-72
2022/04/15 01:58:30;;;;;;;25.10;16.40;;;;;;;1.48;73.23;97771.87;110089;1247;58951;-73
2022/04/15 02:01:00;;;;;;;19.60;13.80;;;;;;;1.40;74.52;97770.88;110142;1247;70730;-72
2022/04/15 02:03:30;;;;;;;;;;;;;;;1.36;72.15;97771.35;110133;1247;69411;-72
2022/04/15 02:06:02;;;;;;;21.60;14.80;;;;;;;1.33;72.02;97766.30;110127;1246;69234;-72
2022/04/15 02:08:32;;;;;;;;;;;;;;;1.35;73.99;97758.35;110107;1247;58943;-71
2022/04/15 02:11:03;;;;;;;19.70;13.20;;;;;;;1.38;73.91;97754.63;110062;1247;58863;-71
2022/04/15 02:13:34;;;;;;;19.90;14.10;;;;;;;1.39;73.76;97750.16;110108;1247;69870;-70
2022/04/15 02:16:04;;;;;;;21.30;14.00;;;;;;;1.40;73.19;97756.14;109865;1247;69414;-72
2022/04/15 02:18:35;;;;;;;18.20;12.90;;;;;;;1.42;73.19;97747.48;109869;1247;69428;-72
2022/04/15 02:21:05;;;;;;;19.60;13.90;;;;;;;1.43;73.29;97746.58;110080;1247;58886;-69
2022/04/15 02:23:36;;;;;;;21.50;15.20;;;;;;;1.41;73.12;97748.54;110091;1247;58943;-72
2022/04/15 02:26:06;;;;;;;18.50;13.90;;;;;;;1.36;73.10;97746.27;110002;1247;71423;-71
2022/04/15 02:28:36;;;;;;;;;;;;;;;1.32;73.18;97747.79;109951;1247;68582;-73
2022/04/15 02:31:06;;;;;;;20.40;13.30;;;;;;;1.24;73.96;97748.53;110058;1247;68612;-71
2022/04/15 02:33:36;;;;;;;16.60;11.50;;;;;;;1.19;77.05;97746.98;110081;1247;58937;-71
2022/04/15 02:36:07;;;;;;;20.20;14.10;;;;;;;1.16;76.52;97752.06;110106;1247;58857;-72
2022/04/15 02:38:37;;;;;;;17.30;12.00;;;;;;;1.12;77.82;97749.95;110112;1247;70791;-72
2022/04/15 02:41:07;;;;;;;19.10;13.60;;;;;;;1.07;77.43;97747.84;110023;1247;68712;-71
2022/04/15 02:43:39;;;;;;;20.20;14.00;;;;;;;1.02;77.27;97747.50;110055;1247;68674;-74
2022/04/15 02:46:10;;;;;;;22.00;15.20;;;;;;;0.93;75.89;97744.48;110068;1247;59298;-71
2022/04/15 02:48:41;;;;;;;23.20;15.70;;;;;;;0.85;76.55;97744.36;110055;1248;58824;-69
2022/04/15 02:51:14;;;;;;;18.40;14.00;;;;;;;0.79;76.11;97748.83;110233;1246;70759;-71
2022/04/15 02:53:43;;;;;;;14.70;11.10;;;;;;;0.74;77.03;97745.36;110136;1247;68441;-71
2022/04/15 02:56:13;;;;;;;16.20;12.80;;;;;;;0.71;76.67;97748.38;110273;1246;69454;-72
2022/04/15 02:58:43;;;;;;;16.90;12.00;;;;;;;0.70;79.04;97746.67;110048;1248;58870;-72
2022/04/15 03:01:14;;;;;;;14.50;10.50;;;;;;;0.67;77.55;97741.94;110172;1247;58889;-71
2022/04/15 03:03:44;;;;;;;;;;;;;;;0.64;76.98;97747.71;110091;1247;70746;-66
2022/04/15 03:06:13;;;;;;;13.30;8.90;;;;;;;0.58;77.27;97742.90;110329;1246;69796;-72
2022/04/15 03:08:43;;;;;;;14.10;10.10;;;;;;;0.53;76.52;97742.70;110262;1247;70200;-72
2022/04/15 03:11:13;;;;;;;11.80;7.30;;;;;;;0.49;75.17;97739.34;110125;1247;58902;-72
2022/04/15 03:13:42;;;;;;;12.90;10.50;;;;;;;0.48;74.72;97740.59;110268;1246;58865;-72
2022/04/15 03:16:12;;;;;;;14.90;10.90;;;;;;;0.48;77.37;97740.27;109881;1250;68856;-70
2022/04/15 03:18:42;;;;;;;12.30;10.20;;;;;;;0.46;77.75;97746.14;110139;1247;69203;-72
2022/04/15 03:21:12;;;;;;;13.20;8.90;;;;;;;0.43;77.33;97741.59;110360;1245;68622;-69
2022/04/15 03:23:42;;;;;;;16.40;11.20;;;;;;;0.41;78.14;97746.09;110257;1247;58880;-72
2022/04/15 03:26:13;;;;;;;13.30;9.80;;;;;;;0.39;78.69;97748.05;109996;1247;58885;-70
2022/04/15 03:28:44;;;;;;;13.30;10.50;;;;;;;0.33;77.59;97741.67;110086;1247;70032;-72
2022/04/15 03:31:14;;;;;;;20.40;12.20;;;;;;;0.28;75.45;97739.95;110306;1246;68486;-72
2022/04/15 03:33:44;;;;;;;;;;;;;;;0.22;75.25;97741.46;110220;1246;69406;-72
2022/04/15 03:36:16;;;;;;;24.20;15.30;;;;;;;0.17;77.84;97743.66;110156;1247;58965;-71
2022/04/15 03:38:45;;;;;;;21.10;13.00;;;;;;;0.10;75.13;97744.02;110074;1248;58935;-70
2022/04/15 03:41:15;;;;;;;22.80;13.10;;;;;;;0.00;78.65;97748.54;110224;1247;70258;-72
2022/04/15 03:43:45;;;;;;;22.10;15.10;;;;;;;-0.06;79.67;97746.27;110084;1247;68538;-71
2022/04/15 03:46:15;;;;;;;18.60;13.90;;;;;;;-0.09;78.50;97746.04;110258;1246;68459;-71
2022/04/15 03:48:46;;;;;;;18.90;13.70;;;;;;;-0.09;79.74;97744.14;109894;1247;58913;-70
2022/04/15 03:51:15;;;;;;;20.30;14.40;;;;;;;-0.05;80.67;97744.38;110066;1247;58943;-70
2022/04/15 03:53:45;;;;;;;17.00;12.20;;;;;;;-0.00;80.20;97745.98;110111;1246;70575;-72
2022/04/15 03:56:14;;;;;;;14.60;9.00;;;;;;;0.03;79.02;97747.28;110141;1247;69439;-71
2022/04/15 03:58:44;;;;;;;16.70;11.80;;;;;;;0.06;78.24;97740.67;109698;1247;69408;-69
2022/04/15 04:01:14;;;;;;;16.00;10.50;;;;;;;0.11;79.34;97742.77;110116;1247;58909;-71
2022/04/15 04:03:44;;;;;;;17.60;11.80;;;;;;;0.15;78.49;97747.47;109881;1249;58950;-70
2022/04/15 04:06:14;;;;;;;13.70;10.20;;;;;;;0.23;79.83;97744.70;110111;1247;69989;-72
2022/04/15 04:08:49;;;;;;;23.70;13.80;;;;;;;0.31;77.30;97743.45;110002;1247;69402;-70
2022/04/15 04:11:21;;;;;;;20.40;12.90;;;;;;;0.44;76.06;97743.11;109935;1247;69290;-71
2022/04/15 04:13:50;;;;;;;15.10;10.10;;;;;;;0.58;77.76;97741.52;110035;1247;58897;-72
2022/04/15 04:16:20;;;;;;;21.90;15.30;;;;;;;0.75;77.87;97739.15;110057;1247;58898;-74
2022/04/15 04:18:49;;;;;;;16.40;11.40;;;;;;;0.92;77.72;97742.09;110068;1246;70738;-73
2022/04/15 04:21:20;;;;;;;18.30;12.40;;;;;;;1.12;77.32;97743.09;110074;1247;69409;-71
2022/04/15 04:23:50;;;;;;;15.70;11.10;;;;;;;1.30;76.56;97741.83;110094;1247;69204;-69
2022/04/15 04:26:19;;;;;;;14.10;10.30;;;;;;;1.52;75.89;97739.08;110054;1247;58905;-70
2022/04/15 04:28:49;;;;;;;16.70;13.10;;;;;;;1.73;75.74;97743.06;110042;1247;58883;-72
2022/04/15 04:31:20;;;;;;;19.80;12.10;;;;;;;1.97;75.62;97743.33;109978;1247;70276;-71
2022/04/15 04:33:49;;;;;;;19.50;14.20;;;;;;;2.21;75.35;97745.09;109944;1248;69429;-70
2022/04/15 04:36:19;;;;;;;15.60;12.30;;;;;;;2.49;74.06;97745.67;110056;1247;69730;-73
2022/04/15 04:38:49;;;;;;;17.40;12.20;;;;;;;2.78;72.80;97744.65;110064;1247;58965;-70
2022/04/15 04:41:19;;;;;;;16.80;12.00;;;;;;;3.07;71.86;97743.41;110048;1247;58901;-71
2022/04/15 04:43:49;;;;;;;14.20;11.00;;;;;;;3.39;70.85;97744.73;110036;1247;69982;-72
2022/04/15 04:46:19;;;;;;;15.30;11.60;;;;;;;3.75;69.54;97742.33;110174;1247;69212;-71
2022/04/15 04:48:53;;;;;;;16.20;11.10;;;;;;;4.14;69.27;97739.32;110098;1247;68758;-71
2022/04/15 04:51:23;;;;;;;21.90;16.50;;;;;;;4.40;66.96;97741.86;110121;1246;58888;-71
2022/04/15 04:53:52;;;;;;;23.60;16.80;;;;;;;4.60;65.32;97745.98;110117;1246;59206;-71
2022/04/15 04:56:21;;;;;;;22.90;17.10;;;;;;;4.65;64.87;97741.82;110142;1247;70798;-68
2022/04/15 04:58:51;;;;;;;26.50;18.20;;;;;;;4.92;66.01;97740.44;110135;1247;69529;-69
2022/04/15 05:01:20;;;;;;;26.80;18.30;;;;;;;5.32;67.56;97744.15;110347;1247;67720;-70
2022/04/15 05:03:50;;;;;;;22.90;17.30;;;;;;;5.66;67.23;97741.15;110053;1247;58920;-72
2022/04/15 05:06:20;;;;;;;28.70;21.50;;;;;;;5.96;64.87;97743.04;110037;1247;58882;-71
2022/04/15 05:08:50;;;;;;;36.40;25.20;;;;;;;6.02;62.77;97746.55;110153;1247;69020;-70
2022/04/15 05:11:25;;;;;;;32.00;22.50;;;;;;;5.66;61.18;97748.23;110219;1246;69414;-69
2022/04/15 05:13:54;;;;;;;33.90;22.00;;;;;;;5.60;61.06;97750.63;110151;1246;68666;-68
2022/04/15 05:16:23;;;;;;;27.70;18.40;;;;;;;5.77;61.33;97752.77;110176;1245;58920;-68
2022/04/15 05:18:53;;;;;;;30.70;18.00;;;;;;;6.28;63.23;97755.14;109820;1249;58967;-68
2022/04/15 05:21:23;;;;;;;23.80;17.50;;;;;;;6.78;62.90;97756.36;110145;1247;69846;-68
2022/04/15 05:23:52;;;;;;;27.50;20.10;;;;;;;7.10;58.49;97755.19;110083;1247;68008;-71
2022/04/15 05:26:21;;;;;;;24.00;16.30;;;;;;;7.42;57.51;97756.61;110051;1247;69077;-70
2022/04/15 05:28:51;;;;;;;14.50;11.80;;;;;;;7.86;60.44;97758.15;110225;1246;59338;-70
2022/04/15 05:31:22;;;;;;;18.00;12.60;;;;;;;8.40;61.39;97755.22;110117;1246;58839;-70
2022/04/15 05:33:52;;;;;;;17.60;12.70;;;;;;;8.91;59.74;97748.23;110285;1246;69910;-71
2022/04/15 05:36:22;;;;;;;15.80;11.40;;;;;;;9.18;53.64;97746.95;110129;1247;69043;-72
2022/04/15 05:38:52;;;;;;;14.10;11.80;;;;;;;9.60;55.69;97748.28;110146;1247;68980;-69
2022/04/15 05:41:22;;;;;;;17.80;11.60;;;;;;;9.96;53.67;97745.10;110064;1247;58917;-71
2022/04/15 05:43:57;;;;;;;19.50;13.50;;;;;;;10.04;50.77;97744.58;110202;1247;58882;-72
2022/04/15 05:46:31;;;;;;;16.50;13.30;;;;;;;9.93;51.80;97743.03;110373;1247;70590;-73
2022/04/15 05:49:01;;;;;;;15.50;12.30;;;;;;;10.11;50.91;97737.69;110071;1247;70157;-70
2022/04/15 05:51:30;;;;;;;18.80;14.10;;;;;;;10.56;51.09;97733.83;110408;1247;68642;-72
2022/04/15 05:54:02;;;;;;;16.50;12.90;;;;;;;10.80;49.52;97728.86;110133;1245;58920;-72
2022/04/15 05:56:33;;;;;;;20.40;14.90;;;;;;;11.07;49.48;97730.18;109914;1247;58940;-73
2022/04/15 05:59:03;;;;;;;18.00;13.60;;;;;;;11.40;49.26;97732.52;110441;1247;70759;-71
2022/04/15 06:01:32;;;;;;;;;;;;;;;11.83;50.26;97734.41;110392;1247;69865;-72
2022/04/15 06:04:01;;;;;;;17.90;13.70;;;;;;;11.90;47.38;97732.48;110097;1246;68660;-73
2022/04/15 06:06:31;;;;;;;17.90;12.20;;;;;;;12.29;47.70;97727.30;110195;1246;58926;-73
2022/04/15 06:09:07;;;;;;;14.10;11.40;;;;;;;12.82;48.33;97725.77;109957;1245;58940;-71
2022/04/15 06:11:42;;;;;;;16.70;12.60;;;;;;;13.20;46.07;97723.00;109905;1247;70714;-70
2022/04/15 06:14:11;;;;;;;20.20;15.00;;;;;;;13.15;43.85;97722.83;110043;1248;68650;-71
2022/04/15 06:16:42;;;;;;;16.00;12.60;;;;;;;13.04;43.21;97716.67;110147;1247;68434;-71
2022/04/15 06:19:13;;;;;;;15.20;10.60;;;;;;;13.33;45.63;97718.30;110226;1247;58855;-70
2022/04/15 06:21:53;;;;;;;14.00;10.70;;;;;;;13.63;41.76;97712.90;110147;1247;58944;-73
2022/04/15 06:24:25;;;;;;;15.60;11.50;;;;;;;13.50;41.00;97711.05;110139;1245;70911;-71
2022/04/15 06:26:54;;;;;;;16.90;13.30;;;;;;;13.38;42.07;97708.60;110192;1246;68909;-75
2022/04/15 06:29:23;;;;;;;17.50;12.20;;;;;;;13.45;42.01;97710.50;110334;1247;69542;-72
2022/04/15 06:31:55;;;;;;;15.20;11.80;;;;;;;13.77;41.81;97707.44;110208;1247;58877;-71
2022/04/15 06:34:32;;;;;;;15.20;9.70;;;;;;;13.88;41.09;97706.85;110302;1247;58850;-71
2022/04/15 06:37:09;;;;;;;14.20;10.10;;;;;;;14.31;40.87;97701.59;110135;1247;69949;-71
2022/04/15 06:39:54;;;;;;;13.40;9.80;;;;;;;14.80;39.22;97698.22;110061;1247;69470;-70
2022/04/15 06:42:30;;;;;;;12.40;9.00;;;;;;;15.12;37.84;97706.99;110121;1247;68741;-71
2022/04/15 06:45:02;;;;;;;11.00;8.60;;;;;;;15.14;37.83;97706.52;110386;1247;58912;-71
2022/04/15 06:47:31;;;;;;;14.30;8.50;;;;;;;15.11;36.91;97704.64;110172;1248;58885;-72
2022/04/15 06:50:00;;;;;;;10.90;7.80;;;;;;;14.94;36.97;97704.71;110008;1247;70984;-73
2022/04/15 06:52:29;;;;;;;9.40;7.20;;;;;;;14.96;36.92;97705.08;110254;1247;68537;-74
2022/04/15 06:54:58;;;;;;;8.60;7.10;;;;;;;15.05;36.64;97709.91;109976;1247;67814;-71
2022/04/15 06:57:28;;;;;;;10.40;7.10;;;;;;;15.26;36.89;97710.69;110049;1247;58912;-71
2022/04/15 06:59:59;;;;;;;8.70;6.80;;;;;;;15.58;36.68;97715.08;110250;1247;58872;-71
2022/04/15 07:02:33;;;;;;;11.10;8.70;;;;;;;15.60;36.83;97710.23;110059;1247;69770;-72
2022/04/15 07:05:05;;;;;;;10.40;7.90;;;;;;;15.68;36.29;97714.23;110271;1246;69743;-70
2022/04/15 07:07:34;;;;;;;10.30;7.80;;;;;;;15.71;36.40;97713.60;110025;1247;69428;-70
2022/04/15 07:10:06;;;;;;;11.70;8.40;;;;;;;15.61;36.61;97708.70;110117;1247;58872;-70
2022/04/15 07:12:35;;;;;;;9.60;7.90;;;;;;;15.81;36.30;97706.55;110060;1247;58924;-69
2022/04/15 07:15:05;;;;;;;11.60;7.50;;;;;;;15.84;36.14;97708.12;110050;1247;70823;-70
2022/04/15 07:17:40;;;;;;;10.10;7.50;;;;;;;16.04;35.93;97706.47;110107;1247;69593;-70
2022/04/15 07:20:14;;;;;;;8.80;7.20;;;;;;;16.39;35.56;97697.28;110006;1247;69025;-71
2022/04/15 07:22:56;;;;;;;8.70;6.70;;;;;;;16.55;34.31;97695.64;110024;1247;58885;-73
2022/04/15 07:25:26;;;;;;;9.60;7.30;;;;;;;16.63;34.15;97694.02;110265;1246;58864;-72
2022/04/15 07:27:56;;;;;;;7.00;5.70;;;;;;;16.93;34.48;97695.60;110271;1247;70599;-71
2022/04/15 07:30:27;;;;;;;8.30;6.40;;;;;;;17.37;33.45;97694.04;110187;1247;69418;-72
2022/04/15 07:32:58;;;;;;;11.20;7.40;;;;;;;17.48;32.32;97696.34;110201;1247;69528;-73
2022/04/15 07:35:28;;;;;;;10.90;7.10;;;;;;;17.82;31.83;97697.52;110187;1247;58961;-73
2022/04/15 07:37:57;;;;;;;7.50;6.30;;;;;;;17.96;31.65;97694.88;110235;1247;58922;-72
2022/04/15 07:40:28;;;;;;;8.80;6.00;;;;;;;17.82;31.49;97696.95;110237;1247;70781;-70
2022/04/15 07:42:57;;;;;;;10.10;6.50;;;;;;;17.89;31.17;97695.58;110032;1247;69296;-74
2022/04/15 07:45:27;;;;;;;;;;;;;;;18.00;31.08;97692.87;110084;1247;69509;-71
2022/04/15 07:47:58;;;;;;;9.20;6.90;;;;;;;18.01;30.71;97692.11;110328;1247;58929;-69
2022/04/15 07:50:31;;;;;;;12.00;6.80;;;;;;;18.29;31.08;97688.06;110216;1247;58897;-72
2022/04/15 07:53:00;;;;;;;;;;;;;;;18.34;30.22;97687.91;110265;1247;70178;-72
2022/04/15 07:55:29;;;;;;;9.70;6.60;;;;;;;18.40;30.39;97687.89;110262;1247;69220;-72
2022/04/15 07:57:58;;;;;;;9.50;6.90;;;;;;;18.60;29.68;97688.70;110017;1247;68059;-72
2022/04/15 08:00:29;;;;;;;;;;;;;;;18.24;29.87;97683.56;109980;1247;58949;-70
2022/04/15 08:02:58;;;;;;;6.80;5.60;;;;;;;18.26;29.98;97681.10;109988;1247;58948;-70
2022/04/15 08:05:27;;;;;;;8.80;6.50;;;;;;;18.86;29.98;97679.87;110047;1247;70714;-70
2022/04/15 08:07:57;;;;;;;7.30;6.00;;;;;;;19.02;28.63;97677.17;110067;1247;69532;-72
2022/04/15 08:10:26;;;;;;;9.70;6.50;;;;;;;19.06;28.64;97678.36;110224;1247;68539;-71
2022/04/15 08:12:55;;;;;;;8.90;6.20;;;;;;;18.84;28.32;97677.97;110009;1247;58881;-70
2022/04/15 08:15:25;;;;;;;9.00;6.70;;;;;;;19.11;28.06;97673.79;110053;1247;58828;-70
2022/04/15 08:17:54;;;;;;;10.30;7.00;;;;;;;19.20;28.38;97673.92;110052;1247;70761;-70
2022/04/15 08:20:23;;;;;;;9.60;6.20;;;;;;;18.88;28.05;97666.95;110085;1247;68648;-71
2022/04/15 08:22:52;;;;;;;8.00;6.10;;;;;;;19.08;28.02;97666.09;109984;1247;67678;-71
2022/04/15 08:25:21;;;;;;;8.40;6.10;;;;;;;18.97;28.49;97665.80;110165;1247;58958;-70
2022/04/15 08:27:50;;;;;;;6.90;5.00;;;;;;;19.43;26.86;97666.70;110200;1247;58799;-69
2022/04/15 08:30:20;;;;;;;7.90;6.30;;;;;;;19.74;26.12;97662.38;110235;1247;70804;-72
2022/04/15 08:32:52;;;;;;;6.60;5.60;;;;;;;20.17;26.79;97664.02;110196;1247;68608;-74
2022/04/15 08:35:21;;;;;;;7.10;5.30;;;;;;;20.74;23.69;97655.79;110219;1247;67898;-70
2022/04/15 08:37:51;;;;;;;8.30;5.60;;;;;;;20.93;23.42;97654.09;110236;1247;58869;-73
2022/04/15 08:40:20;;;;;;;11.50;6.10;;;;;;;21.17;22.63;97649.58;110210;1247;58872;-73
2022/04/15 08:42:49;;;;;;;6.70;5.10;;;;;;;21.55;22.75;97653.14;110245;1246;70020;-72
2022/04/15 08:45:22;;;;;;;7.00;5.60;;;;;;;21.40;23.13;97646.23;110227;1247;69410;-70
2022/04/15 08:48:01;;;;;;;;;;;;;;;21.99;22.98;97644.98;109995;1247;68857;-70
2022/04/15 08:50:32;;;;;;;8.20;6.00;;;;;;;22.55;21.37;97643.30;110121;1247;58923;-69
2022/04/15 08:53:02;;;;;;;10.00;5.60;;;;;;;22.26;20.34;97636.70;110148;1246;58882;-71
2022/04/15 08:55:32;;;;;;;7.50;5.60;;;;;;;21.33;19.55;97632.58;110000;1247;71036;-71
2022/04/15 08:58:02;;;;;;;7.40;5.80;;;;;;;21.99;21.25;97632.21;110057;1247;69450;-69
2022/04/15 09:00:33;;;;;;;6.70;4.90;;;;;;;21.86;20.01;97632.27;109962;1250;68577;-69
2022/04/15 09:03:03;;;;;;;10.00;6.10;;;;;;;21.87;21.15;97630.09;110028;1247;58928;-69
2022/04/15 09:05:33;;;;;;;8.30;6.00;;;;;;;22.59;21.81;97627.58;109533;1247;701626;-70
2022/04/15 09:08:07;;;;;;;7.00;6.00;;;;;;;22.48;22.66;97622.98;110082;1247;70883;-69
2022/04/15 09:10:41;;;;;;;8.60;6.20;;;;;;;22.93;21.96;97624.48;110213;1246;69279;-69
2022/04/15 09:13:22;;;;;;;9.60;6.90;;;;;;;22.99;22.59;97625.08;110143;1247;69037;-70
2022/04/15 09:15:51;;;;;;;9.40;6.50;;;;;;;22.78;22.35;97619.59;110132;1247;59387;-70
2022/04/15 09:18:31;;;;;;;9.90;7.40;;;;;;;22.49;22.95;97615.18;110076;1247;58881;-71
2022/04/15 09:21:20;;;;;;;;;;;;;;;22.29;23.82;97617.73;110326;1246;70769;-72
2022/04/15 09:23:55;;;;;;;8.30;7.30;;;;;;;22.44;23.64;97611.84;110289;1247;69611;-71
2022/04/15 09:26:25;;;;;;;9.10;6.90;;;;;;;22.87;23.32;97617.30;110312;1246;68643;-71
2022/04/15 09:28:55;;;;;;;8.60;7.20;;;;;;;22.69;23.38;97608.95;110348;1247;58890;-70
2022/04/15 09:31:25;;;;;;;13.50;9.00;;;;;;;22.69;23.96;97608.73;109973;1248;59039;-70
2022/04/15 09:33:57;;;;;;;11.60;9.00;;;;;;;22.58;23.69;97607.09;110102;1247;70834;-72
2022/04/15 09:36:37;;;;;;;13.40;9.40;;;;;;;22.75;23.51;97604.30;110042;1247;68797;-72
2022/04/15 09:39:14;;;;;;;9.80;7.20;;;;;;;23.00;23.28;97604.12;110246;1247;69420;-70
2022/04/15 09:41:55;;;;;;;8.50;6.80;;;;;;;23.28;23.08;97596.13;110032;1247;58858;-70
2022/04/15 09:44:31;;;;;;;9.10;6.70;;;;;;;23.95;22.25;97593.30;110257;1246;58891;-70
2022/04/15 09:47:04;;;;;;;8.20;6.00;;;;;;;24.24;20.74;97588.52;110212;1247;70780;-70
2022/04/15 09:49:36;;;;;;;9.60;7.30;;;;;;;24.01;21.81;97588.90;110040;1247;69648;-69
2022/04/15 09:52:06;;;;;;;9.20;6.60;;;;;;;24.53;21.67;97582.84;109985;1247;68636;-70
2022/04/15 09:54:37;;;;;;;6.70;4.70;;;;;;;24.74;20.93;97582.27;110108;1247;58934;-69
2022/04/15 09:57:09;;;;;;;7.80;5.30;;;;;;;24.57;20.67;97574.88;110046;1247;58907;-71
2022/04/15 09:59:44;;;;;;;6.90;4.80;;;;;;;25.06;20.17;97574.20;110235;1247;70745;-68
2022/04/15 10:02:14;;;;;;;9.40;6.00;;;;;;;24.86;19.94;97572.88;109747;1247;68657;-70
2022/04/15 10:04:44;;;;;;;7.90;5.80;;;;;;;24.23;20.67;97569.89;110277;1247;69486;-69
2022/04/15 10:07:13;;;;;;;5.90;5.30;;;;;;;24.57;20.13;97569.52;110161;1246;58948;-68
2022/04/15 10:09:43;;;;;;;6.70;5.30;;;;;;;25.01;20.20;97562.91;110185;1247;58869;-70
2022/04/15 10:12:14;;;;;;;7.80;6.10;;;;;;;24.52;20.05;97558.77;109992;1247;70235;-69
2022/04/15 10:14:44;;;;;;;7.30;5.90;;;;;;;23.47;20.81;97558.26;110043;1247;68635;-69
2022/04/15 10:17:15;;;;;;;8.80;6.40;;;;;;;24.09;20.93;97551.79;110161;1247;70496;-69
2022/04/15 10:19:45;;;;;;;8.10;6.40;;;;;;;24.74;20.92;97545.23;110375;1247;58877;-69
2022/04/15 10:22:15;;;;;;;7.30;5.80;;;;;;;24.49;20.02;97544.33;110352;1245;58917;-69
2022/04/15 10:24:44;;;;;;;12.10;6.30;;;;;;;24.18;20.21;97540.08;110348;1246;69083;-70
2022/04/15 10:27:14;;;;;;;7.70;6.10;;;;;;;24.14;20.06;97538.52;110140;1247;69433;-70
2022/04/15 10:29:59;;;;;;;8.30;5.30;;;;;;;23.67;20.79;97541.19;110015;1247;68529;-70
2022/04/15 10:32:29;;;;;;;8.30;6.20;;;;;;;23.36;20.48;97539.11;110373;1245;58955;-69
2022/04/15 10:35:00;;;;;;;9.10;5.60;;;;;;;22.93;20.70;97531.73;109825;1248;58947;-69
2022/04/15 10:37:57;;;;;;;6.50;4.20;;;;;;;22.95;20.01;97537.00;110182;1247;70745;-68
2022/04/15 10:40:31;;;;;;;8.30;5.20;;;;;;;23.49;19.01;97530.23;109947;1247;68338;-69
2022/04/15 10:43:18;;;;;;;6.00;4.50;;;;;;;23.05;19.92;97532.27;110059;1247;68650;-69
2022/04/15 10:45:48;;;;;;;6.40;5.00;;;;;;;23.66;19.26;97525.48;110037;1247;58942;-70
2022/04/15 10:48:44;;;;;;;8.40;4.60;;;;;;;23.80;19.37;97522.25;110084;1248;58926;-70
2022/04/15 10:51:32;;;;;;;9.90;5.30;;;;;;;23.69;19.36;97522.47;110337;1247;70809;-71
2022/04/15 10:54:36;;;;;;;8.00;5.30;;;;;;;23.73;19.30;97519.14;110366;1247;69418;-71
2022/04/15 10:57:14;;;;;;;6.00;4.80;;;;;;;23.30;18.97;97520.27;110171;1247;68737;-71
2022/04/15 11:02:51;;;;;;;8.00;4.50;;;;;;;23.21;19.67;97518.90;110236;1246;59271;-69
2022/04/15 11:05:52;;;;;;;10.30;5.90;;;;;;;22.84;20.19;97515.23;110036;1247;71671;-70
2022/04/15 11:08:23;;;;;;;7.80;4.60;;;;;;;23.52;18.45;97511.48;110189;1247;69401;-69
2022/04/15 11:10:55;;;;;;;6.50;3.40;;;;;;;23.35;18.33;97506.00;110074;1248;68077;-69
2022/04/15 11:13:24;;;;;;;5.90;4.00;;;;;;;23.97;17.82;97499.46;110223;1247;58957;-69
2022/04/15 11:15:58;;;;;;;6.30;4.90;;;;;;;24.89;17.34;97501.98;110221;1247;58857;-70
2022/04/15 11:18:50;;;;;;;4.30;3.70;;;;;;;25.20;16.48;97498.84;110241;1247;70008;-71
2022/04/15 11:21:30;;;;;;;;;;;;;;;25.69;17.12;97492.48;110034;1247;68608;-69
2022/04/15 11:24:10;;;;;;;6.40;4.50;;;;;;;26.09;16.70;97488.11;110142;1247;68950;-69
2022/04/15 11:26:43;;;;;;;6.70;4.20;;;;;;;26.33;15.89;97490.73;110223;1248;58921;-70
2022/04/15 11:29:14;;;;;;;5.70;3.90;;;;;;;26.52;15.80;97487.55;110330;1246;58887;-69
2022/04/15 11:31:49;;;;;;;7.00;3.90;;;;;;;26.54;15.35;97480.58;110346;1247;70466;-71
2022/04/15 11:34:20;;;;;;;5.50;2.70;;;;;;;26.51;15.67;97478.11;110246;1247;68405;-72
2022/04/15 11:36:53;;;;;;;6.60;3.00;;;;;;;26.68;15.56;97475.13;110180;1247;69317;-70
2022/04/15 11:39:24;;;;;;;6.60;3.70;;;;;;;27.03;15.81;97470.23;109886;1247;58962;-70
2022/04/15 11:41:58;;;;;;;4.90;2.80;;;;;;;27.28;14.77;97462.55;110030;1248;58881;-68
2022/04/15 11:44:32;;;;;;;3.10;2.20;;;;;;;26.76;14.63;97461.23;110054;1247;70077;-71
2022/04/15 11:47:25;;;;;;;3.60;2.40;;;;;;;26.44;14.85;97460.77;110143;1247;68630;-71
2022/04/15 11:49:51;;;;;;;;;;;;;;;26.07;15.38;97456.49;110330;1247;70052;-71